Map

Track Data

SID SEASON NUMBER BASIN SUBBASIN NAME ISO_TIME NATURE LAT LON WMO_WIND WMO_PRES WMO_AGENCY TRACK_TYPE DIST2LAND LANDFALL IFLAG USA_AGENCY USA_ATCF_ID USA_LAT USA_LON USA_RECORD USA_STATUS USA_WIND USA_PRES USA_SSHS USA_R34_NE USA_R34_SE USA_R34_SW USA_R34_NW USA_R50_NE USA_R50_SE USA_R50_SW USA_R50_NW USA_R64_NE USA_R64_SE USA_R64_SW USA_R64_NW USA_POCI USA_ROCI USA_RMW USA_EYE TOKYO_LAT TOKYO_LON TOKYO_GRADE TOKYO_WIND TOKYO_PRES TOKYO_R50_DIR TOKYO_R50_LONG TOKYO_R50_SHORT TOKYO_R30_DIR TOKYO_R30_LONG TOKYO_R30_SHORT TOKYO_LAND CMA_LAT CMA_LON CMA_CAT CMA_WIND CMA_PRES HKO_LAT HKO_LON HKO_CAT HKO_WIND HKO_PRES NEWDELHI_LAT NEWDELHI_LON NEWDELHI_GRADE NEWDELHI_WIND NEWDELHI_PRES NEWDELHI_CI NEWDELHI_DP NEWDELHI_POCI REUNION_LAT REUNION_LON REUNION_TYPE REUNION_WIND REUNION_PRES REUNION_TNUM REUNION_CI REUNION_RMW REUNION_R34_NE REUNION_R34_SE REUNION_R34_SW REUNION_R34_NW REUNION_R50_NE REUNION_R50_SE REUNION_R50_SW REUNION_R50_NW REUNION_R64_NE REUNION_R64_SE REUNION_R64_SW REUNION_R64_NW BOM_LAT BOM_LON BOM_TYPE BOM_WIND BOM_PRES BOM_TNUM BOM_CI BOM_RMW BOM_R34_NE BOM_R34_SE BOM_R34_SW BOM_R34_NW BOM_R50_NE BOM_R50_SE BOM_R50_SW BOM_R50_NW BOM_R64_NE BOM_R64_SE BOM_R64_SW BOM_R64_NW BOM_ROCI BOM_POCI BOM_EYE BOM_POS_METHOD BOM_PRES_METHOD NADI_LAT NADI_LON NADI_CAT NADI_WIND NADI_PRES WELLINGTON_LAT WELLINGTON_LON WELLINGTON_WIND WELLINGTON_PRES DS824_LAT DS824_LON DS824_STAGE DS824_WIND DS824_PRES TD9636_LAT TD9636_LON TD9636_STAGE TD9636_WIND TD9636_PRES TD9635_LAT TD9635_LON TD9635_WIND TD9635_PRES TD9635_ROCI NEUMANN_LAT NEUMANN_LON NEUMANN_CLASS NEUMANN_WIND NEUMANN_PRES MLC_LAT MLC_LON MLC_CLASS MLC_WIND MLC_PRES USA_GUST BOM_GUST BOM_GUST_PER REUNION_GUST REUNION_GUST_PER USA_SEAHGT USA_SEARAD_NE USA_SEARAD_SE USA_SEARAD_SW USA_SEARAD_NW STORM_SPEED STORM_DIR
1950055S15156 1950 14 SP EA NOT_NAMED 1950-02-24 00:00:00 TS -14.7000 156.400 main 661 661 O________OO___ jtwc_sh SH141950 -14.7000 156.400 -1 -14.7000 156.400 TC -14.7000 156.400 2 10 183
1950055S15156 1950 14 SP EA NOT_NAMED 1950-02-24 03:00:00 TS -15.2090 156.351 main 708 708 P________PP___ SH141950 -15.2150 156.348 -1 -15.2150 156.348 TC -15.1969 156.358 2 10 185
1950055S15156 1950 14 SP EA NOT_NAMED 1950-02-24 06:00:00 TS -15.6917 156.304 main 761 761 O________OP___ jtwc_sh SH141950 -15.7000 156.300 -1 -15.7000 156.300 TC -15.6750 156.313 2 9 185
1950055S15156 1950 14 SP EA NOT_NAMED 1950-02-24 09:00:00 TS -16.1252 156.259 main 800 800 P________PP___ SH141950 -16.1300 156.257 -1 -16.1300 156.257 TC -16.1157 156.261 2 8 187
1950055S15156 1950 14 SP EA NOT_NAMED 1950-02-24 12:00:00 TS -16.5000 156.200 main 845 843 O________OO___ jtwc_sh SH141950 -16.5000 156.200 -1 -16.5000 156.200 TC -16.5000 156.200 2 7 191
1950055S15156 1950 14 SP EA NOT_NAMED 1950-02-24 15:00:00 TS -16.8162 156.114 main 843 811 P________PP___ SH141950 -16.8150 156.107 -1 -16.8150 156.107 TC -16.8187 156.126 2 6 197
1950055S15156 1950 14 SP EA NOT_NAMED 1950-02-24 18:00:00 TS -17.1000 156.012 main 811 779 O________OP___ jtwc_sh SH141950 -17.1000 156.000 -1 -17.1000 156.000 TC -17.0999 156.037 2 6 199
1950055S15156 1950 14 SP EA NOT_NAMED 1950-02-24 21:00:00 TS -17.3787 155.915 main 779 748 P________PP___ SH141950 -17.3775 155.907 -1 -17.3775 155.907 TC -17.3812 155.929 2 6 199
1950055S15156 1950 14 SP EA NOT_NAMED 1950-02-25 00:00:00 TS -17.7000 155.800 main 748 709 O________OO___ jtwc_sh SH141950 -17.7000 155.800 -1 -17.7000 155.800 TC -17.7000 155.800 2 8 198
1950055S15156 1950 14 SP EA NOT_NAMED 1950-02-25 03:00:00 TS -18.1260 155.667 main 709 655 P________PP___ SH141950 -18.1275 155.665 -1 -18.1275 155.665 TC -18.1230 155.671 2 9 197
1950055S15156 1950 14 SP EA NOT_NAMED 1950-02-25 06:00:00 TS -18.5949 155.506 main 655 609 O________OP___ jtwc_sh SH141950 -18.6000 155.500 -1 -18.6000 155.500 TC -18.5847 155.517 2 10 199
1950055S15156 1950 14 SP EA NOT_NAMED 1950-02-25 09:00:00 TS -19.0613 155.325 main 602 558 P________PP___ SH141950 -19.0649 155.322 -1 -19.0649 155.322 TC -19.0541 155.330 2 10 203
1950055S15156 1950 14 SP EA NOT_NAMED 1950-02-25 12:00:00 TS -19.5000 155.100 main 558 506 O________OO___ jtwc_sh SH141950 -19.5000 155.100 -1 -19.5000 155.100 TC -19.5000 155.100 2 9 210
1950055S15156 1950 14 SP EA NOT_NAMED 1950-02-25 15:00:00 TS -19.8736 154.825 main 506 461 P________PP___ SH141950 -19.8650 154.822 -1 -19.8650 154.822 TC -19.8909 154.830 2 9 218
1950055S15156 1950 14 SP EA NOT_NAMED 1950-02-25 18:00:00 TS -20.2175 154.506 main 461 416 O________OP___ jtwc_sh SH141950 -20.2000 154.500 -1 -20.2000 154.500 TC -20.2524 154.517 2 9 222
1950055S15156 1950 14 SP EA NOT_NAMED 1950-02-25 21:00:00 TS -20.5675 154.167 main 410 357 P________PP___ SH141950 -20.5574 154.165 -1 -20.5574 154.165 TC -20.5877 154.171 2 10 224
1950055S15156 1950 14 SP EA NOT_NAMED 1950-02-26 00:00:00 TS -20.9000 153.800 main 357 305 O________OO___ jtwc_sh SH141950 -20.9000 153.800 -1 -20.9000 153.800 TC -20.9000 153.800 2 10 228
1950055S15156 1950 14 SP EA NOT_NAMED 1950-02-26 03:00:00 TS -21.2129 153.407 main 305 252 P________PP___ SH141950 -21.2150 153.407 -1 -21.2150 153.407 TC -21.2089 153.405 2 10 231
1950055S15156 1950 14 SP EA NOT_NAMED 1950-02-26 06:00:00 TS -21.4984 152.998 main 252 205 O________OP___ jtwc_sh SH141950 -21.5000 153.000 -1 -21.5000 153.000 TC -21.4953 152.993 2 9 234
1950055S15156 1950 14 SP EA NOT_NAMED 1950-02-26 09:00:00 TS -21.7630 152.589 main 201 154 P________PP___ SH141950 -21.7650 152.592 -1 -21.7650 152.592 TC -21.7590 152.583 2 9 236
1950055S15156 1950 14 SP EA NOT_NAMED 1950-02-26 12:00:00 TS -22.0000 152.200 main 154 117 O________OO___ jtwc_sh SH141950 -22.0000 152.200 -1 -22.0000 152.200 TC -22.0000 152.200 2 8 237
1950055S15156 1950 14 SP EA NOT_NAMED 1950-02-26 15:00:00 TS -22.2115 151.838 main 108 72 P________PP___ SH141950 -22.2075 151.827 -1 -22.2075 151.827 TC -22.2196 151.859 2 8 237
1950055S15156 1950 14 SP EA NOT_NAMED 1950-02-26 18:00:00 TS -22.4075 151.518 main 72 51 O________OP___ jtwc_sh SH141950 -22.4000 151.500 -1 -22.4000 151.500 TC -22.4225 151.553 2 7 234
1950055S15156 1950 14 SP EA NOT_NAMED 1950-02-26 21:00:00 TS -22.6031 151.245 main 41 20 P________PP___ SH141950 -22.5975 151.233 -1 -22.5975 151.233 TC -22.6141 151.271 2 6 231
1950055S15156 1950 14 SP EA NOT_NAMED 1950-02-27 00:00:00 TS -22.8000 151.000 main 20 O________OO___ jtwc_sh SH141950 -22.8000 151.000 -1 -22.8000 151.000 TC -22.8000 151.000 2 6 229

Digital Typhoon Data and Search

About IBTrACS Database

This database is a web-friendly format of International Best Track Archive for Climate Stewardship (IBTrACS), a global best track data archive curated by NOAA dating back to 1842.

Updated: 2021-11-26